createdAt,value
2019-02-14T00:04:09.599Z,36.30
2019-02-14T00:06:57.231Z,31.73
2019-02-14T00:09:25.621Z,30.17
2019-02-14T00:12:13.337Z,35.57
2019-02-14T00:14:41.720Z,35.30
2019-02-14T00:17:10.105Z,31.67
2019-02-14T00:19:57.608Z,35.17
2019-02-14T00:22:25.997Z,31.33
2019-02-14T00:25:13.624Z,30.50
2019-02-14T00:28:01.128Z,32.57
2019-02-14T00:30:48.626Z,36.03
2019-02-14T00:33:36.131Z,34.50
2019-02-14T00:36:23.754Z,38.13
2019-02-14T00:38:52.138Z,36.93
2019-02-14T00:41:20.518Z,34.17
2019-02-14T00:44:08.248Z,40.53
2019-02-14T00:46:55.871Z,29.57
2019-02-14T00:49:43.506Z,39.27
2019-02-14T00:54:59.336Z,36.53
2019-02-14T00:57:27.732Z,46.43
2019-02-14T00:59:56.116Z,32.33
2019-02-14T01:02:43.622Z,35.43
2019-02-14T01:05:12.299Z,33.83
2019-02-14T01:07:40.691Z,43.00
2019-02-14T01:15:51.136Z,38.90
2019-02-14T01:18:38.642Z,40.30
2019-02-14T01:21:07.019Z,32.80
2019-02-14T01:23:35.408Z,38.47
2019-02-14T01:28:52.893Z,35.87
2019-02-14T01:31:40.382Z,34.47
2019-02-14T01:34:27.920Z,42.70
2019-02-14T01:37:15.515Z,40.37
2019-02-14T01:39:43.899Z,32.63
2019-02-14T01:42:31.618Z,37.90
2019-02-14T01:47:52.609Z,37.50
2019-02-14T01:50:40.246Z,38.83
2019-02-14T01:53:27.875Z,35.63
2019-02-14T01:55:56.250Z,45.23
2019-02-14T01:58:24.640Z,38.40
2019-02-14T02:00:53.021Z,37.27
2019-02-14T02:03:21.410Z,36.53
2019-02-14T02:05:51.054Z,44.37
2019-02-14T02:11:14.848Z,33.70
2019-02-14T02:13:43.228Z,38.80
2019-02-14T02:16:23.755Z,38.23
2019-02-14T02:19:11.387Z,39.67
2019-02-14T02:21:59.117Z,36.83
2019-02-14T02:24:46.630Z,39.37
2019-02-14T02:27:34.120Z,37.80
2019-02-14T02:30:21.643Z,38.30
2019-02-14T02:32:49.999Z,37.50
2019-02-14T02:35:18.395Z,40.50
2019-02-14T02:37:46.784Z,40.90
2019-02-14T02:42:48.841Z,40.10
2019-02-14T02:45:17.265Z,41.90
2019-02-14T02:47:45.604Z,50.20
2019-02-14T02:50:14.247Z,39.77
2019-02-14T02:52:42.637Z,37.43
2019-02-14T02:55:50.931Z,38.37
2019-02-14T02:58:19.300Z,39.03
2019-02-14T03:03:41.029Z,48.30
2019-02-14T03:06:28.671Z,44.30
2019-02-14T03:08:57.055Z,42.40
2019-02-14T03:11:44.553Z,39.47
2019-02-14T03:19:43.314Z,32.63
2019-02-14T03:22:11.699Z,46.23
2019-02-14T03:24:40.093Z,39.30
2019-02-14T03:29:55.923Z,41.13
2019-02-14T03:32:24.309Z,47.93
2019-02-14T03:34:52.693Z,45.57
2019-02-14T03:37:21.074Z,40.67
2019-02-14T03:39:49.479Z,41.80
2019-02-14T03:42:17.860Z,45.03
2019-02-14T03:45:05.496Z,39.40
2019-02-14T03:47:33.874Z,51.70
2019-02-14T03:50:02.264Z,43.40
2019-02-14T03:53:10.552Z,46.77
2019-02-14T03:55:58.050Z,40.00
2019-02-14T03:58:45.541Z,41.43
2019-02-14T04:01:13.930Z,49.33
2019-02-14T04:04:01.552Z,44.97
2019-02-14T04:06:29.940Z,48.40
2019-02-14T04:09:17.431Z,59.30
2019-02-14T04:14:39.470Z,54.77
2019-02-14T04:17:07.860Z,59.10
2019-02-14T04:19:55.488Z,41.47
2019-02-14T04:22:23.875Z,43.57
2019-02-14T04:25:11.509Z,45.07
2019-02-14T04:27:39.890Z,46.80
2019-02-14T04:30:27.642Z,43.30
2019-02-14T04:33:15.268Z,47.07
2019-02-14T04:36:02.778Z,43.73
2019-02-14T04:38:31.150Z,52.20
2019-02-14T04:41:18.787Z,46.27
2019-02-14T04:43:47.168Z,53.20
2019-02-14T04:48:49.952Z,42.20
2019-02-14T04:51:18.338Z,45.50
2019-02-14T04:53:46.716Z,43.67
2019-02-14T04:56:55.008Z,47.40
2019-02-14T04:59:42.504Z,43.63
2019-02-14T05:02:10.932Z,38.43
2019-02-14T05:04:58.423Z,43.10
2019-02-14T05:07:26.817Z,47.30
2019-02-14T05:09:55.195Z,40.80
2019-02-14T05:12:23.583Z,44.10
2019-02-14T05:15:11.254Z,44.33
2019-02-14T05:17:39.601Z,48.27
2019-02-14T05:20:27.318Z,52.67
2019-02-14T05:22:55.710Z,46.87
2019-02-14T05:25:24.087Z,37.63
2019-02-14T05:27:52.478Z,45.10
2019-02-14T05:33:08.306Z,42.40
2019-02-14T05:35:55.943Z,43.07
2019-02-14T05:38:24.321Z,50.67
2019-02-14T05:41:11.812Z,50.60
2019-02-14T05:43:40.199Z,44.70
2019-02-14T05:46:08.636Z,40.07
2019-02-14T05:48:37.024Z,46.30
2019-02-14T05:51:24.521Z,41.10
2019-02-14T05:54:12.259Z,40.87
2019-02-14T05:56:40.639Z,53.20
2019-02-14T05:59:09.020Z,50.60
2019-02-14T06:01:56.515Z,49.60
2019-02-14T06:04:24.909Z,49.10
2019-02-14T06:07:12.404Z,40.40
2019-02-14T06:09:40.798Z,45.97
2019-02-14T06:12:09.178Z,47.27
2019-02-14T06:14:56.811Z,56.83
2019-02-14T06:17:44.311Z,45.20
2019-02-14T06:20:52.599Z,50.07
2019-02-14T06:23:21.023Z,43.80
2019-02-14T06:26:08.482Z,52.77
2019-02-14T06:28:37.377Z,47.47
2019-02-14T06:31:06.970Z,45.73
2019-02-14T06:33:54.473Z,44.67
2019-02-14T06:36:22.854Z,50.87
2019-02-14T06:38:51.249Z,65.03
2019-02-14T06:41:19.624Z,46.20
2019-02-14T06:43:48.011Z,50.23
2019-02-14T06:46:35.508Z,50.90
2019-02-14T06:49:03.896Z,43.80
2019-02-14T06:54:19.739Z,42.60
2019-02-14T06:56:48.112Z,44.43
2019-02-14T06:59:35.747Z,46.03
2019-02-14T07:02:23.376Z,42.47
2019-02-14T07:04:51.784Z,45.13
2019-02-14T07:07:39.402Z,42.80
2019-02-14T07:10:47.703Z,48.70
2019-02-14T07:13:35.335Z,50.13
2019-02-14T07:16:03.727Z,50.70
2019-02-14T07:18:32.143Z,52.10
2019-02-14T07:21:19.652Z,42.20
2019-02-14T07:24:07.156Z,46.20
2019-02-14T07:29:22.988Z,41.43
2019-02-14T07:37:12.515Z,39.80
2019-02-14T07:39:40.952Z,30.93
2019-02-14T07:42:15.654Z,35.83
2019-02-14T07:45:03.342Z,34.00
2019-02-14T07:47:31.720Z,34.13
2019-02-14T07:50:00.331Z,34.30
2019-02-14T07:52:49.597Z,30.37
2019-02-14T07:55:18.066Z,29.40
2019-02-14T07:57:46.459Z,41.23
2019-02-14T08:00:54.754Z,26.87
2019-02-14T08:03:23.140Z,27.93
2019-02-14T08:06:10.644Z,27.47
2019-02-14T08:08:58.146Z,28.10
2019-02-14T08:11:26.537Z,25.00
2019-02-14T08:13:54.921Z,32.13
2019-02-14T08:16:23.322Z,30.43
2019-02-14T08:21:58.399Z,29.07
2019-02-14T08:24:46.036Z,25.50
2019-02-14T08:29:48.663Z,28.33
2019-02-14T08:32:36.416Z,26.80
2019-02-14T08:35:44.715Z,27.53
2019-02-14T08:38:32.340Z,28.00
2019-02-14T08:41:19.858Z,27.00
2019-02-14T08:43:48.258Z,33.67
2019-02-14T08:46:35.886Z,28.50
2019-02-14T08:49:23.388Z,29.07
2019-02-14T08:51:51.779Z,26.03
2019-02-14T08:54:20.165Z,25.17
2019-02-14T08:57:07.678Z,25.13
2019-02-14T08:59:36.061Z,22.50
2019-02-14T09:02:04.457Z,24.90
2019-02-14T09:07:20.294Z,21.30
2019-02-14T09:10:28.643Z,29.33
2019-02-14T09:13:04.744Z,22.80
2019-02-14T09:15:33.145Z,22.60
2019-02-14T09:18:20.788Z,21.80
2019-02-14T09:21:08.287Z,25.20
2019-02-14T09:23:55.928Z,24.90
2019-02-14T09:26:24.558Z,23.70
2019-02-14T09:34:54.673Z,20.90
2019-02-14T09:37:42.182Z,21.07
2019-02-14T09:40:50.481Z,22.30
2019-02-14T09:45:52.792Z,22.27
2019-02-14T09:48:40.444Z,20.53
2019-02-14T09:51:08.822Z,22.23
2019-02-14T09:53:37.200Z,21.97
2019-02-14T09:56:05.590Z,25.43
2019-02-14T09:58:53.226Z,19.60
2019-02-14T10:01:21.612Z,19.33
2019-02-14T10:04:09.245Z,21.53
2019-02-14T10:06:56.877Z,20.87
2019-02-14T10:09:44.382Z,21.27
2019-02-14T10:14:46.744Z,22.07
2019-02-14T10:17:22.019Z,22.93
2019-02-14T10:19:45.257Z,17.10
2019-02-14T10:22:32.888Z,19.73
2019-02-14T10:25:20.520Z,20.30
2019-02-14T10:27:48.929Z,17.47
2019-02-14T10:30:57.225Z,17.77
2019-02-14T10:33:44.734Z,18.70
2019-02-14T10:36:13.118Z,15.17
2019-02-14T10:38:41.530Z,22.13
2019-02-14T10:41:29.397Z,21.30
2019-02-14T10:44:18.754Z,16.93
2019-02-14T10:46:47.137Z,17.13
2019-02-14T10:49:15.533Z,23.07
2019-02-14T10:52:03.265Z,17.57
2019-02-14T10:54:31.652Z,15.93
2019-02-14T10:57:19.286Z,15.23
2019-02-14T11:03:23.030Z,17.30
2019-02-14T11:06:31.433Z,19.00
2019-02-14T11:08:59.832Z,14.57
2019-02-14T11:11:28.216Z,13.43
2019-02-14T11:13:56.617Z,12.47
2019-02-14T11:16:44.117Z,16.90
2019-02-14T11:19:12.507Z,11.10
2019-02-14T11:22:00.006Z,12.50
2019-02-14T11:24:47.512Z,14.70
2019-02-14T11:27:35.211Z,10.70
2019-02-14T11:30:43.521Z,14.37
2019-02-14T11:35:59.442Z,11.27
2019-02-14T11:38:27.833Z,12.13
2019-02-14T11:41:15.546Z,15.90
2019-02-14T11:43:43.935Z,22.53
2019-02-14T11:46:12.326Z,11.13
2019-02-14T11:49:00.044Z,10.17
2019-02-14T11:51:28.446Z,12.70
2019-02-14T11:54:15.952Z,13.47
2019-02-14T11:57:03.567Z,9.80
2019-02-14T11:59:51.075Z,13.03
2019-02-14T12:02:38.575Z,16.00
2019-02-14T12:05:46.863Z,9.53
2019-02-14T12:08:15.240Z,9.70
2019-02-14T12:11:02.896Z,11.13
2019-02-14T12:13:31.258Z,8.50
2019-02-14T12:16:18.887Z,7.60
2019-02-14T12:19:06.515Z,9.30
2019-02-14T12:21:34.890Z,9.70
2019-02-14T12:24:03.266Z,8.57
2019-02-14T12:26:50.904Z,10.10
2019-02-14T12:29:19.295Z,7.60
2019-02-14T12:31:47.671Z,8.30
2019-02-14T12:34:16.042Z,7.50
2019-02-14T12:37:03.549Z,9.30
2019-02-14T12:39:31.927Z,8.97
2019-02-14T12:42:19.548Z,9.10
2019-02-14T12:44:47.931Z,6.83
2019-02-14T12:47:16.321Z,7.73
2019-02-14T12:49:44.822Z,11.60
2019-02-14T12:52:13.205Z,8.40
2019-02-14T12:55:00.872Z,6.87
2019-02-14T12:57:29.287Z,11.57
2019-02-14T12:59:57.754Z,8.27
2019-02-14T13:02:26.127Z,8.00
2019-02-14T13:05:13.775Z,9.63
2019-02-14T13:08:01.506Z,8.50
2019-02-14T13:10:49.036Z,8.37
2019-02-14T13:13:17.452Z,10.43
2019-02-14T13:16:05.119Z,7.80
2019-02-14T13:18:33.529Z,13.00
2019-02-14T13:21:01.961Z,10.20
2019-02-14T13:23:49.610Z,12.13
2019-02-14T13:26:37.264Z,12.00
2019-02-14T13:29:24.896Z,8.40
2019-02-14T13:31:53.329Z,10.27
2019-02-14T13:34:21.755Z,8.40
2019-02-14T13:36:50.184Z,7.83
2019-02-14T13:39:37.731Z,11.30
2019-02-14T13:42:06.470Z,7.43
2019-02-14T13:44:34.886Z,11.60
2019-02-14T13:47:03.320Z,7.63
2019-02-14T13:49:50.856Z,8.63
2019-02-14T13:52:19.288Z,7.17
2019-02-14T13:54:47.673Z,7.20
2019-02-14T13:57:16.090Z,10.53
2019-02-14T13:59:44.489Z,7.07
2019-02-14T14:02:12.895Z,6.33
2019-02-14T14:04:41.287Z,10.13
2019-02-14T14:07:28.934Z,6.97
2019-02-14T14:10:16.527Z,7.63
2019-02-14T14:13:04.032Z,5.73
2019-02-14T14:18:19.851Z,8.63
2019-02-14T14:21:07.351Z,6.30
2019-02-14T14:23:35.724Z,5.93
2019-02-14T14:26:23.363Z,5.77
2019-02-14T14:29:10.987Z,8.13
2019-02-14T14:31:39.373Z,4.83
2019-02-14T14:34:27.096Z,5.70
2019-02-14T14:37:14.730Z,5.67
2019-02-14T14:39:47.719Z,4.50
2019-02-14T14:50:01.667Z,6.53
2019-02-14T14:52:30.052Z,4.73
2019-02-14T14:55:17.543Z,6.23
2019-02-14T14:57:45.927Z,4.67
2019-02-14T15:00:33.544Z,4.37
2019-02-14T15:03:01.922Z,4.90
2019-02-14T15:05:49.548Z,6.17
2019-02-14T15:08:37.051Z,4.53
2019-02-14T15:13:52.874Z,5.27
2019-02-14T15:16:40.358Z,4.63
2019-02-14T15:19:27.859Z,4.87
2019-02-14T15:21:56.508Z,4.63
2019-02-14T15:24:44.009Z,4.43
2019-02-14T15:27:12.396Z,4.80
2019-02-14T15:32:47.340Z,5.00
2019-02-14T15:35:15.708Z,4.20
2019-02-14T15:38:03.431Z,4.00
2019-02-14T15:40:50.940Z,13.37
2019-02-14T15:43:38.443Z,4.90
2019-02-14T15:46:25.940Z,3.90
2019-02-14T15:48:54.323Z,8.47
2019-02-14T15:51:43.739Z,4.50
2019-02-14T15:56:45.731Z,4.27
2019-02-14T15:59:14.118Z,4.37
2019-02-14T16:01:44.363Z,5.20
2019-02-14T16:04:12.605Z,7.87
2019-02-14T16:07:00.218Z,6.33
2019-02-14T16:09:28.853Z,4.63
2019-02-14T16:11:57.888Z,12.30
2019-02-14T16:14:27.343Z,5.70
2019-02-14T16:22:19.445Z,19.43
2019-02-14T16:24:47.744Z,14.90
2019-02-14T16:27:16.426Z,12.47
2019-02-14T16:29:46.797Z,9.30
2019-02-14T16:32:34.022Z,8.70
2019-02-14T16:35:02.406Z,8.40
2019-02-14T16:37:50.595Z,7.43
2019-02-14T16:40:39.114Z,6.13
2019-02-14T16:43:07.512Z,10.20
2019-02-14T16:45:55.145Z,8.77
2019-02-14T16:48:42.649Z,10.37
2019-02-14T16:51:11.025Z,6.67
2019-02-14T16:53:39.408Z,7.67
2019-02-14T16:56:27.026Z,7.00
2019-02-14T16:58:55.430Z,5.07
2019-02-14T17:01:43.063Z,4.63
2019-02-14T17:04:11.468Z,5.77
2019-02-14T17:06:58.965Z,8.33
2019-02-14T17:09:27.356Z,11.43
2019-02-14T17:12:14.980Z,5.27
2019-02-14T17:15:02.612Z,5.93
2019-02-14T17:17:30.989Z,7.83
2019-02-14T17:20:18.621Z,11.93
2019-02-14T17:22:47.005Z,10.20
2019-02-14T17:25:17.202Z,5.13
2019-02-14T17:27:45.508Z,10.10
2019-02-14T17:30:33.018Z,5.17
2019-02-14T17:33:20.636Z,12.43
2019-02-14T17:38:42.735Z,8.67
2019-02-14T17:41:11.120Z,10.00
2019-02-14T17:43:58.759Z,8.40
2019-02-14T17:46:46.253Z,5.60
2019-02-14T17:51:49.150Z,5.40
2019-02-14T17:54:17.529Z,5.63
2019-02-14T17:57:05.018Z,6.20
2019-02-14T17:59:33.397Z,6.77
2019-02-14T18:02:01.777Z,9.40
2019-02-14T18:04:49.407Z,7.00
2019-02-14T18:07:17.793Z,8.73
2019-02-14T18:09:46.178Z,9.10
2019-02-14T18:12:14.546Z,8.17
2019-02-14T18:14:42.927Z,8.63
2019-02-14T18:17:30.546Z,10.27
2019-02-14T18:19:58.932Z,16.77
2019-02-14T18:22:46.558Z,12.73
2019-02-14T18:25:54.852Z,12.87
2019-02-14T18:28:42.576Z,7.73
2019-02-14T18:31:30.203Z,7.73
2019-02-14T18:34:17.689Z,8.10
2019-02-14T18:36:46.070Z,7.33
2019-02-14T18:39:33.696Z,6.43
2019-02-14T18:42:21.309Z,7.07
2019-02-14T18:44:49.692Z,9.67
2019-02-14T18:47:18.061Z,6.17
2019-02-14T18:49:46.467Z,8.33
2019-02-14T18:52:33.932Z,5.97
2019-02-14T18:55:02.317Z,8.70
2019-02-14T18:57:30.712Z,11.20
2019-02-14T19:02:33.119Z,10.90
2019-02-14T19:05:20.618Z,15.50
2019-02-14T19:07:48.986Z,9.00
2019-02-14T19:10:57.287Z,13.07
2019-02-14T19:13:44.901Z,9.20
2019-02-14T19:16:32.530Z,12.87
2019-02-14T19:19:20.164Z,14.67
2019-02-14T19:21:48.543Z,25.97
2019-02-14T19:24:18.706Z,34.10
2019-02-14T19:27:06.161Z,26.90
2019-02-14T19:29:53.783Z,26.53
2019-02-14T19:32:41.306Z,22.70
2019-02-14T19:35:49.584Z,21.77
2019-02-14T19:38:17.961Z,25.53
2019-02-14T19:40:46.351Z,20.77
2019-02-14T19:43:14.733Z,23.03
2019-02-14T19:46:02.464Z,20.53
2019-02-14T19:48:50.103Z,20.90
2019-02-14T19:51:18.513Z,21.13
2019-02-14T19:53:46.912Z,17.90
2019-02-14T19:56:15.304Z,22.60
2019-02-14T19:59:02.950Z,19.27
2019-02-14T20:01:50.588Z,23.77
2019-02-14T20:04:18.972Z,19.13
2019-02-14T20:07:06.477Z,20.70
2019-02-14T20:09:34.855Z,16.30
2019-02-14T20:12:22.502Z,16.70
2019-02-14T20:14:50.884Z,19.23
2019-02-14T20:17:38.761Z,20.80
2019-02-14T20:20:47.117Z,23.37
2019-02-14T20:26:22.235Z,24.80
2019-02-14T20:28:50.617Z,27.93
2019-02-14T20:31:19.102Z,21.33
2019-02-14T20:34:06.599Z,26.43
2019-02-14T20:36:34.988Z,28.23
2019-02-14T20:41:52.471Z,26.53
2019-02-14T20:44:40.091Z,26.97
2019-02-14T20:47:27.612Z,24.93
2019-02-14T20:49:56.015Z,23.10
2019-02-14T20:52:24.420Z,28.03
2019-02-14T20:57:40.244Z,25.60
2019-02-14T21:00:48.536Z,26.00
2019-02-14T21:03:16.961Z,20.20
2019-02-14T21:06:04.764Z,24.23
2019-02-14T21:08:52.403Z,26.13
2019-02-14T21:11:20.794Z,21.00
2019-02-14T21:14:08.422Z,28.63
2019-02-14T21:16:36.811Z,35.03
2019-02-14T21:19:24.304Z,38.97
2019-02-14T21:21:52.958Z,37.73
2019-02-14T21:24:21.332Z,27.90
2019-02-14T21:27:08.987Z,30.90
2019-02-14T21:29:56.623Z,49.47
2019-02-14T21:32:44.256Z,41.50
2019-02-14T21:35:52.790Z,44.70
2019-02-14T21:38:21.174Z,37.83
2019-02-14T21:40:50.013Z,35.23
2019-02-14T21:43:37.978Z,36.23
2019-02-14T21:46:25.505Z,34.20
2019-02-14T21:48:54.165Z,17.53
2019-02-14T21:51:41.856Z,21.70
2019-02-14T21:54:29.481Z,23.20
2019-02-14T21:57:17.123Z,28.37
2019-02-14T21:59:45.496Z,38.17
2019-02-14T22:04:47.889Z,30.60
2019-02-14T22:07:35.778Z,36.37
2019-02-14T22:10:44.063Z,30.97
2019-02-14T22:13:12.455Z,28.93
2019-02-14T22:15:40.828Z,32.70
2019-02-14T22:18:09.226Z,39.70
2019-02-14T22:20:37.600Z,24.87
2019-02-14T22:30:48.548Z,29.90
2019-02-14T22:33:16.938Z,23.30
2019-02-14T22:36:04.444Z,14.60
2019-02-14T22:38:32.833Z,17.33
2019-02-14T22:41:20.455Z,15.13
2019-02-14T22:43:48.836Z,12.13
2019-02-14T22:46:17.212Z,11.80
2019-02-14T22:48:45.590Z,13.87
2019-02-14T22:51:13.962Z,11.67
2019-02-14T22:53:42.345Z,16.50
2019-02-14T22:56:29.967Z,10.30
2019-02-14T23:01:32.194Z,10.20
2019-02-14T23:04:19.695Z,14.50
2019-02-14T23:06:48.070Z,12.33
2019-02-14T23:11:51.641Z,14.83
2019-02-14T23:14:20.030Z,10.47
2019-02-14T23:20:14.073Z,9.90
2019-02-14T23:25:29.889Z,9.73
2019-02-14T23:28:17.810Z,11.87
2019-02-14T23:31:05.431Z,13.57
2019-02-14T23:33:34.050Z,8.97
2019-02-14T23:36:21.677Z,11.60
2019-02-14T23:38:50.058Z,13.33
2019-02-14T23:41:18.430Z,9.60
2019-02-14T23:43:46.818Z,12.97
2019-02-14T23:46:34.310Z,10.43
2019-02-14T23:49:02.691Z,20.00
2019-02-14T23:54:18.511Z,10.80
2019-02-14T23:57:06.135Z,10.70
2019-02-14T23:59:53.643Z,10.77
